createdAt,value
2022-12-18T00:01:21.832Z,11.95
2022-12-18T00:03:49.004Z,11.07
2022-12-18T00:06:16.199Z,12.68
2022-12-18T00:08:44.086Z,13.48
2022-12-18T00:11:19.150Z,13.38
2022-12-18T00:13:45.949Z,11.10
2022-12-18T00:16:17.676Z,11.52
2022-12-18T00:18:46.666Z,13.98
2022-12-18T00:21:13.955Z,13.35
2022-12-18T00:23:43.268Z,12.82
2022-12-18T00:26:17.919Z,13.98
2022-12-18T00:28:45.358Z,12.30
2022-12-18T00:31:14.344Z,11.63
2022-12-18T00:33:41.234Z,12.23
2022-12-18T00:36:15.447Z,12.18
2022-12-18T00:38:42.755Z,12.55
2022-12-18T00:41:11.875Z,11.63
2022-12-18T00:43:39.701Z,9.90
2022-12-18T00:46:07.285Z,11.93
2022-12-18T00:48:33.840Z,12.65
2022-12-18T00:51:00.312Z,11.63
2022-12-18T00:53:26.809Z,12.30
2022-12-18T00:55:53.312Z,9.77
2022-12-18T00:58:19.823Z,11.00
2022-12-18T01:00:46.437Z,12.35
2022-12-18T01:03:14.638Z,12.20
2022-12-18T01:05:42.823Z,11.38
2022-12-18T01:08:09.792Z,11.95
2022-12-18T01:10:36.343Z,11.50
2022-12-18T01:13:03.565Z,11.68
2022-12-18T01:15:30.154Z,12.30
2022-12-18T01:17:56.652Z,12.05
2022-12-18T01:20:23.116Z,12.00
2022-12-18T01:22:49.651Z,12.18
2022-12-18T01:25:16.310Z,11.85
2022-12-18T01:27:43.699Z,12.70
2022-12-18T01:30:10.704Z,11.23
2022-12-18T01:32:37.222Z,11.65
2022-12-18T01:35:04.063Z,9.90
2022-12-18T01:37:30.534Z,12.73
2022-12-18T01:39:57.102Z,11.18
2022-12-18T01:42:23.639Z,10.93
2022-12-18T01:44:57.382Z,10.55
2022-12-18T01:47:45.868Z,11.95
2022-12-18T01:50:22.566Z,11.25
2022-12-18T01:52:52.113Z,12.20
2022-12-18T01:55:20.529Z,11.32
2022-12-18T01:57:47.966Z,11.18
2022-12-18T02:00:18.627Z,10.23
2022-12-18T02:02:46.772Z,10.95
2022-12-18T02:05:16.288Z,11.45
2022-12-18T02:08:01.834Z,11.35
2022-12-18T02:10:46.514Z,11.10
2022-12-18T02:13:20.014Z,11.32
2022-12-18T02:15:56.386Z,11.75
2022-12-18T02:18:30.098Z,11.43
2022-12-18T02:21:18.512Z,12.77
2022-12-18T02:23:57.795Z,11.95
2022-12-18T02:26:36.300Z,12.55
2022-12-18T02:29:30.226Z,9.82
2022-12-18T02:32:00.977Z,10.80
2022-12-18T02:34:29.970Z,9.20
2022-12-18T02:36:59.337Z,12.02
2022-12-18T02:39:27.947Z,11.80
2022-12-18T02:42:03.364Z,12.82
2022-12-18T02:44:29.958Z,12.95
2022-12-18T02:46:56.446Z,11.02
2022-12-18T02:49:30.575Z,11.82
2022-12-18T02:52:12.467Z,11.63
2022-12-18T02:54:57.578Z,11.90
2022-12-18T02:57:36.701Z,11.93
2022-12-18T03:00:17.556Z,10.88
2022-12-18T03:02:56.449Z,9.88
2022-12-18T03:05:31.533Z,10.35
2022-12-18T03:08:07.382Z,10.95
2022-12-18T03:10:42.099Z,10.48
2022-12-18T03:13:12.986Z,10.88
2022-12-18T03:15:51.097Z,11.07
2022-12-18T03:18:22.711Z,11.30
2022-12-18T03:20:50.265Z,11.35
2022-12-18T03:25:55.031Z,10.60
2022-12-18T03:28:44.913Z,9.52
2022-12-18T03:31:49.920Z,9.55
2022-12-18T03:34:52.913Z,11.45
2022-12-18T03:37:58.137Z,9.68
2022-12-18T03:41:07.929Z,11.02
2022-12-18T03:44:28.914Z,12.80
2022-12-18T03:47:41.915Z,12.52
2022-12-18T03:50:51.938Z,9.68
2022-12-18T03:54:05.922Z,9.82
2022-12-18T03:57:26.928Z,10.65
2022-12-18T04:00:13.499Z,11.30
2022-12-18T04:02:56.907Z,11.65
2022-12-18T04:05:32.317Z,11.35
2022-12-18T04:07:58.997Z,10.70
2022-12-18T04:10:25.661Z,11.63
2022-12-18T04:12:56.624Z,11.35
2022-12-18T04:15:24.489Z,10.45
2022-12-18T04:17:51.441Z,11.23
2022-12-18T04:20:21.722Z,11.00
2022-12-18T04:22:48.623Z,11.70
2022-12-18T04:25:15.243Z,10.30
2022-12-18T04:27:53.900Z,9.95
2022-12-18T04:30:20.421Z,11.75
2022-12-18T04:32:52.063Z,10.32
2022-12-18T04:35:20.565Z,10.20
2022-12-18T04:37:47.188Z,11.07
2022-12-18T04:40:13.723Z,10.45
2022-12-18T04:42:43.862Z,11.43
2022-12-18T04:45:10.711Z,10.48
2022-12-18T04:47:37.285Z,11.55
2022-12-18T04:50:04.118Z,9.98
2022-12-18T04:52:30.655Z,9.95
2022-12-18T04:54:57.149Z,10.50
2022-12-18T04:57:23.888Z,9.38
2022-12-18T04:59:50.445Z,10.85
2022-12-18T05:02:17.103Z,11.75
2022-12-18T05:04:43.680Z,10.20
2022-12-18T05:07:10.183Z,9.38
2022-12-18T05:09:36.705Z,11.77
2022-12-18T05:12:03.261Z,10.93
2022-12-18T05:14:30.312Z,11.15
2022-12-18T05:17:00.706Z,9.60
2022-12-18T05:21:54.024Z,10.85
2022-12-18T05:24:20.559Z,9.38
2022-12-18T05:26:47.255Z,11.88
2022-12-18T05:29:14.088Z,11.27
2022-12-18T05:31:41.032Z,10.88
2022-12-18T05:34:09.458Z,8.88
2022-12-18T05:36:37.122Z,9.20
2022-12-18T05:39:04.017Z,10.77
2022-12-18T05:41:31.009Z,9.98
2022-12-18T05:43:57.578Z,10.45
2022-12-18T05:46:25.187Z,10.32
2022-12-18T05:48:51.975Z,9.52
2022-12-18T05:51:20.553Z,10.38
2022-12-18T05:53:47.946Z,8.93
2022-12-18T05:56:16.766Z,10.18
2022-12-18T05:58:43.510Z,9.85
2022-12-18T06:01:22.058Z,10.05
2022-12-18T06:03:48.684Z,10.25
2022-12-18T06:06:16.046Z,9.73
2022-12-18T06:08:46.390Z,10.35
2022-12-18T06:11:13.562Z,9.70
2022-12-18T06:13:40.687Z,10.20
2022-12-18T06:16:07.643Z,9.32
2022-12-18T06:18:34.518Z,9.80
2022-12-18T06:21:01.513Z,9.88
2022-12-18T06:23:28.056Z,9.60
2022-12-18T06:25:54.717Z,8.90
2022-12-18T06:28:21.221Z,9.15
2022-12-18T06:30:49.111Z,8.48
2022-12-18T06:33:16.776Z,11.05
2022-12-18T06:35:43.455Z,10.55
2022-12-18T06:38:09.919Z,10.45
2022-12-18T06:40:39.526Z,10.27
2022-12-18T06:43:06.535Z,10.57
2022-12-18T06:45:33.042Z,10.60
2022-12-18T06:47:59.567Z,10.10
2022-12-18T06:50:26.253Z,11.07
2022-12-18T06:52:52.765Z,9.45
2022-12-18T06:55:19.424Z,8.80
2022-12-18T06:57:45.984Z,10.30
2022-12-18T07:00:12.939Z,10.60
2022-12-18T07:02:39.540Z,9.65
2022-12-18T07:05:10.733Z,9.38
2022-12-18T07:07:37.803Z,9.18
2022-12-18T07:10:04.725Z,9.50
2022-12-18T07:12:31.313Z,8.82
2022-12-18T07:14:57.767Z,10.23
2022-12-18T07:17:24.307Z,9.60
2022-12-18T07:19:50.925Z,9.27
2022-12-18T07:22:17.401Z,9.57
2022-12-18T07:24:43.902Z,9.02
2022-12-18T07:27:10.449Z,9.57
2022-12-18T07:29:36.987Z,10.35
2022-12-18T07:32:04.786Z,8.65
2022-12-18T07:34:31.302Z,10.02
2022-12-18T07:36:58.004Z,8.82
2022-12-18T07:39:24.548Z,10.35
2022-12-18T07:42:11.340Z,8.57
2022-12-18T07:44:40.166Z,9.63
2022-12-18T07:47:11.645Z,7.78
2022-12-18T07:49:38.777Z,7.72
2022-12-18T07:52:05.404Z,10.93
2022-12-18T07:54:32.248Z,10.15
2022-12-18T07:56:58.775Z,10.65
2022-12-18T07:59:25.290Z,12.43
2022-12-18T08:01:51.943Z,8.48
2022-12-18T08:04:18.507Z,10.80
2022-12-18T08:06:48.123Z,10.57
2022-12-18T08:09:15.061Z,9.87
2022-12-18T08:11:41.598Z,9.93
2022-12-18T08:14:08.048Z,9.02
2022-12-18T08:16:34.761Z,10.32
2022-12-18T08:19:01.410Z,10.07
2022-12-18T08:21:30.498Z,10.25
2022-12-18T08:23:58.789Z,8.68
2022-12-18T08:26:26.917Z,9.82
2022-12-18T08:28:58.110Z,10.15
2022-12-18T08:31:25.240Z,9.32
2022-12-18T08:33:53.143Z,9.27
2022-12-18T08:36:21.044Z,9.50
2022-12-18T08:38:47.864Z,10.10
2022-12-18T08:41:16.691Z,8.15
2022-12-18T08:44:02.046Z,9.48
2022-12-18T08:46:34.233Z,8.77
2022-12-18T08:49:00.884Z,10.25
2022-12-18T08:51:27.626Z,10.23
2022-12-18T08:53:54.209Z,8.88
2022-12-18T08:56:20.801Z,8.63
2022-12-18T08:58:47.475Z,9.55
2022-12-18T09:01:14.535Z,10.13
2022-12-18T09:03:41.678Z,10.07
2022-12-18T09:06:08.633Z,10.40
2022-12-18T09:08:35.184Z,10.68
2022-12-18T09:11:01.938Z,10.43
2022-12-18T09:13:28.550Z,11.05
2022-12-18T09:15:56.135Z,9.77
2022-12-18T09:18:23.908Z,12.45
2022-12-18T09:20:52.665Z,11.05
2022-12-18T09:23:19.612Z,10.52
2022-12-18T09:25:46.281Z,9.35
2022-12-18T09:28:15.452Z,11.05
2022-12-18T09:30:44.202Z,11.40
2022-12-18T09:33:10.956Z,9.25
2022-12-18T09:35:38.629Z,10.40
2022-12-18T09:38:05.436Z,10.63
2022-12-18T09:40:37.437Z,10.20
2022-12-18T09:43:08.298Z,9.70
2022-12-18T09:48:17.497Z,8.82
2022-12-18T09:50:45.035Z,9.73
2022-12-18T09:53:17.122Z,9.55
2022-12-18T09:55:46.817Z,8.80
2022-12-18T09:58:29.948Z,9.23
2022-12-18T10:00:57.289Z,9.63
2022-12-18T10:03:24.126Z,9.80
2022-12-18T10:06:16.900Z,9.57
2022-12-18T10:09:02.752Z,9.77
2022-12-18T10:11:31.956Z,9.55
2022-12-18T10:14:09.389Z,10.23
2022-12-18T10:16:54.407Z,10.52
2022-12-18T10:19:50.180Z,8.93
2022-12-18T10:22:35.447Z,9.50
2022-12-18T10:25:21.453Z,9.68
2022-12-18T10:27:48.387Z,10.30
2022-12-18T10:30:17.277Z,11.23
2022-12-18T10:32:43.838Z,10.50
2022-12-18T10:35:28.339Z,9.45
2022-12-18T10:38:41.595Z,9.30
2022-12-18T10:41:29.479Z,9.50
2022-12-18T10:44:24.761Z,9.32
2022-12-18T10:46:56.893Z,10.52
2022-12-18T10:49:29.215Z,10.43
2022-12-18T10:52:25.782Z,9.48
2022-12-18T10:54:55.907Z,11.18
2022-12-18T10:57:37.825Z,11.10
2022-12-18T11:00:22.206Z,10.20
2022-12-18T11:02:49.316Z,10.13
2022-12-18T11:05:33.839Z,9.77
2022-12-18T11:08:01.506Z,10.48
2022-12-18T11:10:37.490Z,9.65
2022-12-18T11:13:17.537Z,10.73
2022-12-18T11:15:44.506Z,10.98
2022-12-18T11:18:30.044Z,12.27
2022-12-18T11:20:59.414Z,10.15
2022-12-18T11:23:26.555Z,9.95
2022-12-18T11:25:55.264Z,9.73
2022-12-18T11:28:31.056Z,9.85
2022-12-18T11:31:21.513Z,10.43
2022-12-18T11:34:27.652Z,11.23
2022-12-18T11:36:46.584Z,10.00
2022-12-18T11:39:22.473Z,10.93
2022-12-18T11:42:18.839Z,11.13
2022-12-18T11:44:53.785Z,11.38
2022-12-18T11:47:36.642Z,11.45
2022-12-18T11:50:04.666Z,9.07
2022-12-18T11:52:40.209Z,11.38
2022-12-18T11:55:16.656Z,11.70
2022-12-18T11:58:01.689Z,12.38
2022-12-18T12:00:28.489Z,11.07
2022-12-18T12:03:04.203Z,12.18
2022-12-18T12:05:48.816Z,10.70
2022-12-18T12:08:36.887Z,11.48
2022-12-18T12:11:03.574Z,12.38
2022-12-18T12:13:59.715Z,12.15
2022-12-18T12:16:34.009Z,11.80
2022-12-18T12:19:19.800Z,13.23
2022-12-18T12:21:58.174Z,13.25
2022-12-18T12:24:40.460Z,12.15
2022-12-18T12:27:37.633Z,12.10
2022-12-18T12:30:32.028Z,11.77
2022-12-18T12:33:13.414Z,11.98
2022-12-18T12:35:48.196Z,11.57
2022-12-18T12:38:38.369Z,11.95
2022-12-18T12:41:31.082Z,13.98
2022-12-18T12:43:59.917Z,13.80
2022-12-18T12:46:30.332Z,11.90
2022-12-18T12:49:02.263Z,12.50
2022-12-18T12:51:40.398Z,12.10
2022-12-18T12:54:29.783Z,15.77
2022-12-18T12:57:08.465Z,14.30
2022-12-18T12:59:46.463Z,14.90
2022-12-18T13:02:24.095Z,14.45
2022-12-18T13:05:19.849Z,14.20
2022-12-18T13:08:23.631Z,10.57
2022-12-18T13:10:50.687Z,13.68
2022-12-18T13:13:21.173Z,13.50
2022-12-18T13:16:05.782Z,15.60
2022-12-18T13:18:33.357Z,11.50
2022-12-18T13:23:47.166Z,13.95
2022-12-18T13:26:24.695Z,12.98
2022-12-18T13:28:55.611Z,13.63
2022-12-18T13:31:40.730Z,14.73
2022-12-18T13:34:26.056Z,16.33
2022-12-18T13:36:55.440Z,15.13
2022-12-18T13:39:28.607Z,15.05
2022-12-18T13:42:05.238Z,14.30
2022-12-18T13:44:41.583Z,15.30
2022-12-18T13:47:27.020Z,15.45
2022-12-18T13:49:53.630Z,16.70
2022-12-18T13:52:26.500Z,12.80
2022-12-18T13:54:57.864Z,13.88
2022-12-18T13:57:52.093Z,13.63
2022-12-18T14:00:32.710Z,13.55
2022-12-18T14:03:00.034Z,15.80
2022-12-18T14:05:30.756Z,14.77
2022-12-18T14:08:02.857Z,14.85
2022-12-18T14:10:48.258Z,16.08
2022-12-18T14:13:21.363Z,17.02
2022-12-18T14:15:49.132Z,16.92
2022-12-18T14:18:35.172Z,14.80
2022-12-18T14:21:03.526Z,16.30
2022-12-18T14:23:41.958Z,16.60
2022-12-18T14:26:30.279Z,15.40
2022-12-18T14:29:01.868Z,15.95
2022-12-18T14:31:30.415Z,14.13
2022-12-18T14:33:56.926Z,17.38
2022-12-18T14:36:28.542Z,17.77
2022-12-18T14:38:59.100Z,18.08
2022-12-18T14:41:26.301Z,14.57
2022-12-18T14:43:54.744Z,14.43
2022-12-18T14:46:33.738Z,18.00
2022-12-18T14:49:22.436Z,15.65
2022-12-18T14:51:54.292Z,16.00
2022-12-18T14:54:21.878Z,16.75
2022-12-18T14:56:51.086Z,17.25
2022-12-18T14:59:24.732Z,15.48
2022-12-18T15:02:10.347Z,15.68
2022-12-18T15:04:44.899Z,14.48
2022-12-18T15:07:19.233Z,14.50
2022-12-18T15:10:21.107Z,16.20
2022-12-18T15:12:49.819Z,15.63
2022-12-18T15:15:35.201Z,17.67
2022-12-18T15:18:03.513Z,18.15
2022-12-18T15:20:39.661Z,16.58
2022-12-18T15:23:06.553Z,17.20
2022-12-18T15:25:37.560Z,16.70
2022-12-18T15:28:04.914Z,16.80
2022-12-18T15:30:32.261Z,18.95
2022-12-18T15:33:25.625Z,17.60
2022-12-18T15:35:59.972Z,17.58
2022-12-18T15:38:27.104Z,17.23
2022-12-18T15:40:54.803Z,15.63
2022-12-18T15:43:35.299Z,16.42
2022-12-18T15:46:03.470Z,18.45
2022-12-18T15:48:30.715Z,18.67
2022-12-18T15:50:58.120Z,16.55
2022-12-18T15:53:33.096Z,19.38
2022-12-18T15:56:18.482Z,17.02
2022-12-18T15:58:45.019Z,19.52
2022-12-18T16:01:11.947Z,16.08
2022-12-18T16:03:39.186Z,19.48
2022-12-18T16:06:06.259Z,16.05
2022-12-18T16:08:32.877Z,16.70
2022-12-18T16:10:59.401Z,17.55
2022-12-18T16:13:26.020Z,15.52
2022-12-18T16:15:52.592Z,20.33
2022-12-18T16:18:19.140Z,18.25
2022-12-18T16:20:46.069Z,17.48
2022-12-18T16:23:13.008Z,17.90
2022-12-18T16:25:39.521Z,19.63
2022-12-18T16:28:06.023Z,18.38
2022-12-18T16:30:38.181Z,17.42
2022-12-18T16:33:05.722Z,20.17
2022-12-18T16:35:34.412Z,17.90
2022-12-18T16:38:01.454Z,19.23
2022-12-18T16:40:28.108Z,18.98
2022-12-18T16:42:54.695Z,18.83
2022-12-18T16:45:21.511Z,18.63
2022-12-18T16:47:48.249Z,18.77
2022-12-18T16:50:14.940Z,18.30
2022-12-18T16:52:41.962Z,19.38
2022-12-18T16:55:10.026Z,21.65
2022-12-18T16:57:36.774Z,19.02
2022-12-18T17:00:05.816Z,19.48
2022-12-18T17:02:33.384Z,22.15
2022-12-18T17:05:00.363Z,18.80
2022-12-18T17:07:28.324Z,21.15
2022-12-18T17:09:55.551Z,20.73
2022-12-18T17:12:23.010Z,21.85
2022-12-18T17:14:49.855Z,19.42
2022-12-18T17:17:22.688Z,19.67
2022-12-18T17:19:51.790Z,20.10
2022-12-18T17:22:18.671Z,22.30
2022-12-18T17:24:46.718Z,18.50
2022-12-18T17:27:13.437Z,19.83
2022-12-18T17:29:46.856Z,20.00
2022-12-18T17:32:15.222Z,23.67
2022-12-18T17:34:42.839Z,19.33
2022-12-18T17:37:09.587Z,20.98
2022-12-18T17:39:36.412Z,22.00
2022-12-18T17:42:03.861Z,21.70
2022-12-18T17:44:32.009Z,23.83
2022-12-18T17:46:58.749Z,22.48
2022-12-18T17:49:25.573Z,24.10
2022-12-18T17:51:52.247Z,22.60
2022-12-18T17:54:19.021Z,25.35
2022-12-18T17:56:46.027Z,19.63
2022-12-18T17:59:14.515Z,23.92
2022-12-18T18:01:44.833Z,24.48
2022-12-18T18:04:13.066Z,20.42
2022-12-18T18:06:40.041Z,23.60
2022-12-18T18:09:15.978Z,23.88
2022-12-18T18:12:03.498Z,26.23
2022-12-18T18:14:30.385Z,21.88
2022-12-18T18:16:58.180Z,23.38
2022-12-18T18:19:30.793Z,22.33
2022-12-18T18:21:57.432Z,21.98
2022-12-18T18:24:24.310Z,23.48
2022-12-18T18:26:51.672Z,18.02
2022-12-18T18:29:23.287Z,22.83
2022-12-18T18:31:50.650Z,21.65
2022-12-18T18:34:25.553Z,22.25
2022-12-18T18:36:52.337Z,23.05
2022-12-18T18:39:19.569Z,28.48
2022-12-18T18:41:48.169Z,22.75
2022-12-18T18:46:45.450Z,24.08
2022-12-18T18:49:13.777Z,24.15
2022-12-18T18:51:43.744Z,22.20
2022-12-18T18:54:10.894Z,23.92
2022-12-18T18:57:11.795Z,24.38
2022-12-18T18:59:31.865Z,28.52
2022-12-18T19:02:00.614Z,24.52
2022-12-18T19:04:32.162Z,23.70
2022-12-18T19:06:58.916Z,22.63
2022-12-18T19:09:26.380Z,28.23
2022-12-18T19:12:12.477Z,25.33
2022-12-18T19:14:39.193Z,21.77
2022-12-18T19:17:10.511Z,23.52
2022-12-18T19:19:37.375Z,22.20
2022-12-18T19:22:04.137Z,20.92
2022-12-18T19:24:32.091Z,28.60
2022-12-18T19:26:59.051Z,21.50
2022-12-18T19:29:25.685Z,23.02
2022-12-18T19:31:52.566Z,26.83
2022-12-18T19:34:19.181Z,23.55
2022-12-18T19:36:45.704Z,25.55
2022-12-18T19:39:16.193Z,24.17
2022-12-18T19:41:43.323Z,24.50
2022-12-18T19:44:17.016Z,25.65
2022-12-18T19:46:45.921Z,23.83
2022-12-18T19:49:17.330Z,21.40
2022-12-18T19:51:44.475Z,25.75
2022-12-18T19:54:16.410Z,23.95
2022-12-18T19:56:44.940Z,22.77
2022-12-18T19:59:11.520Z,22.48
2022-12-18T20:01:38.161Z,24.40
2022-12-18T20:04:04.963Z,25.20
2022-12-18T20:06:36.964Z,23.00
2022-12-18T20:09:06.139Z,24.38
2022-12-18T20:11:33.899Z,24.80
2022-12-18T20:14:06.555Z,24.85
2022-12-18T20:16:33.109Z,25.67
2022-12-18T20:19:00.433Z,27.08
2022-12-18T20:21:27.490Z,26.67
2022-12-18T20:23:55.691Z,23.27
2022-12-18T20:26:23.853Z,23.83
2022-12-18T20:28:50.451Z,29.13
2022-12-18T20:31:17.086Z,24.92
2022-12-18T20:33:44.583Z,24.85
2022-12-18T20:36:21.248Z,22.13
2022-12-18T20:38:57.133Z,23.83
2022-12-18T20:41:26.237Z,24.67
2022-12-18T20:43:57.610Z,25.00
2022-12-18T20:46:24.873Z,25.45
2022-12-18T20:48:51.454Z,23.30
2022-12-18T20:51:20.135Z,24.15
2022-12-18T20:53:47.461Z,26.48
2022-12-18T20:56:21.247Z,26.65
2022-12-18T20:58:49.062Z,22.65
2022-12-18T21:01:19.229Z,24.98
2022-12-18T21:03:46.612Z,24.67
2022-12-18T21:06:15.369Z,24.17
2022-12-18T21:08:42.466Z,22.05
2022-12-18T21:11:40.707Z,22.00
2022-12-18T21:14:16.099Z,24.83
2022-12-18T21:16:43.813Z,26.52
2022-12-18T21:19:12.832Z,24.90
2022-12-18T21:21:40.030Z,24.88
2022-12-18T21:24:07.782Z,22.95
2022-12-18T21:26:34.331Z,25.48
2022-12-18T21:29:03.630Z,23.25
2022-12-18T21:31:32.921Z,24.85
2022-12-18T21:34:02.390Z,22.25
2022-12-18T21:36:30.286Z,26.33
2022-12-18T21:38:58.004Z,24.73
2022-12-18T21:41:46.343Z,21.75
2022-12-18T21:44:15.399Z,25.52
2022-12-18T21:46:44.246Z,25.05
2022-12-18T21:49:14.293Z,24.73
2022-12-18T21:54:08.258Z,22.08
2022-12-18T21:56:45.814Z,24.95
2022-12-18T21:59:14.275Z,23.67
2022-12-18T22:01:40.926Z,25.60
2022-12-18T22:04:07.711Z,26.13
2022-12-18T22:06:34.550Z,26.20
2022-12-18T22:09:01.127Z,28.58
2022-12-18T22:11:27.601Z,24.90
2022-12-18T22:13:54.340Z,25.40
2022-12-18T22:16:20.908Z,21.67
2022-12-18T22:18:47.452Z,25.27
2022-12-18T22:21:31.630Z,28.17
2022-12-18T22:24:03.530Z,26.48
2022-12-18T22:26:37.924Z,26.15
2022-12-18T22:29:25.270Z,25.45
2022-12-18T22:31:51.837Z,26.02
2022-12-18T22:34:22.779Z,22.60
2022-12-18T22:36:50.441Z,24.20
2022-12-18T22:39:27.350Z,24.23
2022-12-18T22:41:55.503Z,23.73
2022-12-18T22:44:22.466Z,26.48
2022-12-18T22:47:05.946Z,28.35
2022-12-18T22:49:34.924Z,25.83
2022-12-18T22:52:05.816Z,29.27
2022-12-18T22:54:33.166Z,25.20
2022-12-18T22:56:59.634Z,26.35
2022-12-18T22:59:26.872Z,28.50
2022-12-18T23:01:58.738Z,29.23
2022-12-18T23:04:30.011Z,30.40
2022-12-18T23:07:04.108Z,28.35
2022-12-18T23:09:30.655Z,26.58
2022-12-18T23:11:57.188Z,26.75
2022-12-18T23:14:23.730Z,28.20
2022-12-18T23:16:50.779Z,27.70
2022-12-18T23:19:19.514Z,29.88
2022-12-18T23:21:46.033Z,27.23
2022-12-18T23:24:12.585Z,27.27
2022-12-18T23:26:39.126Z,27.88
2022-12-18T23:29:05.719Z,32.08
2022-12-18T23:31:34.757Z,28.58
2022-12-18T23:34:02.131Z,28.98
2022-12-18T23:36:29.139Z,28.90
2022-12-18T23:39:00.636Z,32.25
2022-12-18T23:41:30.087Z,30.20
2022-12-18T23:43:57.576Z,28.05
2022-12-18T23:46:30.757Z,27.98
2022-12-18T23:49:02.423Z,29.77
2022-12-18T23:51:29.476Z,29.92
2022-12-18T23:53:58.410Z,27.92
2022-12-18T23:56:26.025Z,31.10
2022-12-18T23:58:52.976Z,32.55
